sensor_id;sensor_type;location;lat;lon;timestamp;P1;durP1;ratioP1;P2;durP2;ratioP2
33501;SDS011;22396;51.070;4.974;2023-10-09T00:01:25;13.13;;;5.63;;
33501;SDS011;22396;51.070;4.974;2023-10-09T00:03:51;13.43;;;5.50;;
33501;SDS011;22396;51.070;4.974;2023-10-09T00:06:18;10.40;;;5.03;;
33501;SDS011;22396;51.070;4.974;2023-10-09T00:08:49;13.07;;;4.73;;
33501;SDS011;22396;51.070;4.974;2023-10-09T00:11:20;10.65;;;5.25;;
33501;SDS011;22396;51.070;4.974;2023-10-09T00:13:46;11.27;;;4.80;;
33501;SDS011;22396;51.070;4.974;2023-10-09T00:16:15;13.13;;;5.57;;
33501;SDS011;22396;51.070;4.974;2023-10-09T00:18:41;10.15;;;5.18;;
33501;SDS011;22396;51.070;4.974;2023-10-09T00:21:15;15.30;;;5.00;;
33501;SDS011;22396;51.070;4.974;2023-10-09T00:23:43;11.02;;;4.85;;
33501;SDS011;22396;51.070;4.974;2023-10-09T00:26:09;10.32;;;5.15;;
33501;SDS011;22396;51.070;4.974;2023-10-09T00:28:38;13.88;;;4.88;;
33501;SDS011;22396;51.070;4.974;2023-10-09T00:31:08;13.80;;;5.68;;
33501;SDS011;22396;51.070;4.974;2023-10-09T00:33:41;12.45;;;6.00;;
33501;SDS011;22396;51.070;4.974;2023-10-09T00:36:07;13.18;;;5.05;;
33501;SDS011;22396;51.070;4.974;2023-10-09T00:38:38;9.07;;;5.28;;
33501;SDS011;22396;51.070;4.974;2023-10-09T00:41:10;14.80;;;6.45;;
33501;SDS011;22396;51.070;4.974;2023-10-09T00:43:38;9.25;;;5.00;;
33501;SDS011;22396;51.070;4.974;2023-10-09T00:46:07;10.48;;;4.88;;
33501;SDS011;22396;51.070;4.974;2023-10-09T00:48:45;12.65;;;5.10;;
33501;SDS011;22396;51.070;4.974;2023-10-09T00:51:13;11.15;;;5.15;;
33501;SDS011;22396;51.070;4.974;2023-10-09T00:53:45;12.57;;;5.30;;
33501;SDS011;22396;51.070;4.974;2023-10-09T00:56:15;12.10;;;5.60;;
33501;SDS011;22396;51.070;4.974;2023-10-09T00:58:49;11.25;;;5.15;;
33501;SDS011;22396;51.070;4.974;2023-10-09T01:01:23;12.07;;;5.63;;
33501;SDS011;22396;51.070;4.974;2023-10-09T01:03:53;12.07;;;5.57;;
33501;SDS011;22396;51.070;4.974;2023-10-09T01:06:19;14.98;;;5.28;;
33501;SDS011;22396;51.070;4.974;2023-10-09T01:08:52;13.95;;;5.60;;
33501;SDS011;22396;51.070;4.974;2023-10-09T01:11:38;17.50;;;5.50;;
33501;SDS011;22396;51.070;4.974;2023-10-09T01:14:14;14.50;;;5.30;;
33501;SDS011;22396;51.070;4.974;2023-10-09T01:16:40;16.25;;;5.03;;
33501;SDS011;22396;51.070;4.974;2023-10-09T01:19:07;10.93;;;5.32;;
33501;SDS011;22396;51.070;4.974;2023-10-09T01:21:38;12.27;;;4.80;;
33501;SDS011;22396;51.070;4.974;2023-10-09T01:24:04;11.32;;;5.18;;
33501;SDS011;22396;51.070;4.974;2023-10-09T01:26:40;11.85;;;4.68;;
33501;SDS011;22396;51.070;4.974;2023-10-09T01:29:21;18.00;;;5.07;;
33501;SDS011;22396;51.070;4.974;2023-10-09T01:31:50;15.85;;;5.72;;
33501;SDS011;22396;51.070;4.974;2023-10-09T01:37:03;12.48;;;5.22;;
33501;SDS011;22396;51.070;4.974;2023-10-09T01:39:30;10.10;;;4.78;;
33501;SDS011;22396;51.070;4.974;2023-10-09T01:42:03;12.05;;;4.55;;
33501;SDS011;22396;51.070;4.974;2023-10-09T01:44:31;11.77;;;4.85;;
33501;SDS011;22396;51.070;4.974;2023-10-09T01:47:00;9.45;;;4.30;;
33501;SDS011;22396;51.070;4.974;2023-10-09T01:52:02;12.63;;;5.70;;
33501;SDS011;22396;51.070;4.974;2023-10-09T01:54:32;11.50;;;4.97;;
33501;SDS011;22396;51.070;4.974;2023-10-09T01:57:08;15.48;;;5.32;;
33501;SDS011;22396;51.070;4.974;2023-10-09T02:02:06;13.98;;;5.05;;
33501;SDS011;22396;51.070;4.974;2023-10-09T02:04:50;14.52;;;5.32;;
33501;SDS011;22396;51.070;4.974;2023-10-09T02:07:25;15.30;;;5.43;;
33501;SDS011;22396;51.070;4.974;2023-10-09T02:10:05;14.38;;;5.28;;
33501;SDS011;22396;51.070;4.974;2023-10-09T02:12:36;16.42;;;5.70;;
33501;SDS011;22396;51.070;4.974;2023-10-09T02:15:02;14.05;;;5.07;;
33501;SDS011;22396;51.070;4.974;2023-10-09T02:17:40;12.27;;;4.65;;
33501;SDS011;22396;51.070;4.974;2023-10-09T02:20:17;13.27;;;5.35;;
33501;SDS011;22396;51.070;4.974;2023-10-09T02:22:48;15.13;;;5.65;;
33501;SDS011;22396;51.070;4.974;2023-10-09T02:25:13;16.48;;;5.60;;
33501;SDS011;22396;51.070;4.974;2023-10-09T02:27:41;12.77;;;4.88;;
33501;SDS011;22396;51.070;4.974;2023-10-09T02:30:20;13.63;;;5.72;;
33501;SDS011;22396;51.070;4.974;2023-10-09T02:32:54;16.45;;;5.88;;
33501;SDS011;22396;51.070;4.974;2023-10-09T02:35:32;9.48;;;4.47;;
33501;SDS011;22396;51.070;4.974;2023-10-09T02:40:33;18.55;;;4.70;;
33501;SDS011;22396;51.070;4.974;2023-10-09T02:43:06;11.10;;;5.10;;
33501;SDS011;22396;51.070;4.974;2023-10-09T02:45:31;11.52;;;4.50;;
33501;SDS011;22396;51.070;4.974;2023-10-09T02:48:04;14.18;;;5.80;;
33501;SDS011;22396;51.070;4.974;2023-10-09T02:50:35;9.73;;;4.57;;
33501;SDS011;22396;51.070;4.974;2023-10-09T02:53:03;13.50;;;5.13;;
33501;SDS011;22396;51.070;4.974;2023-10-09T02:55:34;9.45;;;4.22;;
33501;SDS011;22396;51.070;4.974;2023-10-09T02:58:03;16.42;;;5.13;;
33501;SDS011;22396;51.070;4.974;2023-10-09T03:00:35;16.45;;;4.93;;
33501;SDS011;22396;51.070;4.974;2023-10-09T03:03:02;10.75;;;4.88;;
33501;SDS011;22396;51.070;4.974;2023-10-09T03:05:29;10.60;;;4.72;;
33501;SDS011;22396;51.070;4.974;2023-10-09T03:07:55;18.02;;;5.03;;
33501;SDS011;22396;51.070;4.974;2023-10-09T03:10:25;11.68;;;5.65;;
33501;SDS011;22396;51.070;4.974;2023-10-09T03:12:53;9.70;;;4.95;;
33501;SDS011;22396;51.070;4.974;2023-10-09T03:15:19;11.50;;;5.20;;
33501;SDS011;22396;51.070;4.974;2023-10-09T03:17:45;15.57;;;5.50;;
33501;SDS011;22396;51.070;4.974;2023-10-09T03:20:12;11.88;;;5.18;;
33501;SDS011;22396;51.070;4.974;2023-10-09T03:22:40;13.55;;;5.20;;
33501;SDS011;22396;51.070;4.974;2023-10-09T03:25:06;15.45;;;5.63;;
33501;SDS011;22396;51.070;4.974;2023-10-09T03:27:36;14.02;;;6.05;;
33501;SDS011;22396;51.070;4.974;2023-10-09T03:30:02;17.23;;;5.97;;
33501;SDS011;22396;51.070;4.974;2023-10-09T03:32:30;14.20;;;5.10;;
33501;SDS011;22396;51.070;4.974;2023-10-09T03:34:55;12.00;;;4.85;;
33501;SDS011;22396;51.070;4.974;2023-10-09T03:37:21;10.23;;;5.25;;
33501;SDS011;22396;51.070;4.974;2023-10-09T03:39:47;14.43;;;6.32;;
33501;SDS011;22396;51.070;4.974;2023-10-09T03:42:13;10.85;;;4.97;;
33501;SDS011;22396;51.070;4.974;2023-10-09T03:44:44;13.60;;;5.57;;
33501;SDS011;22396;51.070;4.974;2023-10-09T03:47:17;10.95;;;5.50;;
33501;SDS011;22396;51.070;4.974;2023-10-09T03:49:47;13.25;;;5.30;;
33501;SDS011;22396;51.070;4.974;2023-10-09T03:52:16;12.95;;;5.65;;
33501;SDS011;22396;51.070;4.974;2023-10-09T03:54:42;12.20;;;5.47;;
33501;SDS011;22396;51.070;4.974;2023-10-09T03:57:11;11.85;;;5.63;;
33501;SDS011;22396;51.070;4.974;2023-10-09T03:59:36;18.60;;;6.13;;
33501;SDS011;22396;51.070;4.974;2023-10-09T04:02:02;14.65;;;5.88;;
33501;SDS011;22396;51.070;4.974;2023-10-09T04:04:29;14.57;;;6.10;;
33501;SDS011;22396;51.070;4.974;2023-10-09T04:06:57;12.30;;;5.28;;
33501;SDS011;22396;51.070;4.974;2023-10-09T04:09:22;17.60;;;6.20;;
33501;SDS011;22396;51.070;4.974;2023-10-09T04:11:51;14.23;;;5.57;;
33501;SDS011;22396;51.070;4.974;2023-10-09T04:14:35;13.32;;;5.95;;
33501;SDS011;22396;51.070;4.974;2023-10-09T04:17:01;14.88;;;5.93;;
33501;SDS011;22396;51.070;4.974;2023-10-09T04:19:45;13.32;;;5.93;;
33501;SDS011;22396;51.070;4.974;2023-10-09T04:22:13;11.85;;;5.85;;
33501;SDS011;22396;51.070;4.974;2023-10-09T04:24:51;20.67;;;7.00;;
33501;SDS011;22396;51.070;4.974;2023-10-09T04:27:16;17.23;;;5.93;;
33501;SDS011;22396;51.070;4.974;2023-10-09T04:29:42;15.18;;;6.30;;
33501;SDS011;22396;51.070;4.974;2023-10-09T04:32:12;15.70;;;5.72;;
33501;SDS011;22396;51.070;4.974;2023-10-09T04:34:41;14.30;;;6.10;;
33501;SDS011;22396;51.070;4.974;2023-10-09T04:37:27;14.55;;;6.05;;
33501;SDS011;22396;51.070;4.974;2023-10-09T04:40:08;16.48;;;5.95;;
33501;SDS011;22396;51.070;4.974;2023-10-09T04:42:52;14.82;;;5.82;;
33501;SDS011;22396;51.070;4.974;2023-10-09T04:45:24;17.50;;;6.22;;
33501;SDS011;22396;51.070;4.974;2023-10-09T04:48:08;21.08;;;6.65;;
33501;SDS011;22396;51.070;4.974;2023-10-09T04:50:35;19.65;;;7.10;;
33501;SDS011;22396;51.070;4.974;2023-10-09T04:53:02;17.85;;;6.28;;
33501;SDS011;22396;51.070;4.974;2023-10-09T04:55:42;13.70;;;6.05;;
33501;SDS011;22396;51.070;4.974;2023-10-09T04:58:22;14.70;;;6.72;;
33501;SDS011;22396;51.070;4.974;2023-10-09T05:00:54;19.52;;;6.35;;
33501;SDS011;22396;51.070;4.974;2023-10-09T05:03:25;20.80;;;6.45;;
33501;SDS011;22396;51.070;4.974;2023-10-09T05:05:54;19.17;;;6.95;;
33501;SDS011;22396;51.070;4.974;2023-10-09T05:08:48;21.15;;;7.25;;
33501;SDS011;22396;51.070;4.974;2023-10-09T05:11:13;15.75;;;7.57;;
33501;SDS011;22396;51.070;4.974;2023-10-09T05:13:57;17.35;;;6.93;;
33501;SDS011;22396;51.070;4.974;2023-10-09T05:16:36;17.85;;;6.82;;
33501;SDS011;22396;51.070;4.974;2023-10-09T05:19:02;17.42;;;7.32;;
33501;SDS011;22396;51.070;4.974;2023-10-09T05:24:12;19.13;;;8.13;;
33501;SDS011;22396;51.070;4.974;2023-10-09T05:26:56;18.20;;;7.22;;
33501;SDS011;22396;51.070;4.974;2023-10-09T05:29:42;16.67;;;7.20;;
33501;SDS011;22396;51.070;4.974;2023-10-09T05:32:24;19.33;;;7.35;;
33501;SDS011;22396;51.070;4.974;2023-10-09T05:35:00;19.98;;;7.68;;
33501;SDS011;22396;51.070;4.974;2023-10-09T05:37:26;17.65;;;7.90;;
33501;SDS011;22396;51.070;4.974;2023-10-09T05:39:57;14.82;;;7.25;;
33501;SDS011;22396;51.070;4.974;2023-10-09T05:42:43;18.83;;;7.70;;
33501;SDS011;22396;51.070;4.974;2023-10-09T05:45:25;20.65;;;7.63;;
33501;SDS011;22396;51.070;4.974;2023-10-09T05:48:08;26.13;;;8.13;;
33501;SDS011;22396;51.070;4.974;2023-10-09T05:50:37;17.40;;;8.38;;
33501;SDS011;22396;51.070;4.974;2023-10-09T05:53:20;18.10;;;7.82;;
33501;SDS011;22396;51.070;4.974;2023-10-09T05:56:04;16.30;;;6.75;;
33501;SDS011;22396;51.070;4.974;2023-10-09T05:58:52;26.85;;;7.63;;
33501;SDS011;22396;51.070;4.974;2023-10-09T06:01:36;22.33;;;7.75;;
33501;SDS011;22396;51.070;4.974;2023-10-09T06:04:19;21.67;;;8.73;;
33501;SDS011;22396;51.070;4.974;2023-10-09T06:06:45;18.65;;;8.70;;
33501;SDS011;22396;51.070;4.974;2023-10-09T06:09:12;17.58;;;7.93;;
33501;SDS011;22396;51.070;4.974;2023-10-09T06:11:44;17.65;;;8.73;;
33501;SDS011;22396;51.070;4.974;2023-10-09T06:14:38;20.75;;;7.50;;
33501;SDS011;22396;51.070;4.974;2023-10-09T06:17:03;19.30;;;8.30;;
33501;SDS011;22396;51.070;4.974;2023-10-09T06:20:07;21.75;;;8.00;;
33501;SDS011;22396;51.070;4.974;2023-10-09T06:22:52;17.33;;;8.45;;
33501;SDS011;22396;51.070;4.974;2023-10-09T06:25:23;24.35;;;8.23;;
33501;SDS011;22396;51.070;4.974;2023-10-09T06:27:57;18.77;;;8.20;;
33501;SDS011;22396;51.070;4.974;2023-10-09T06:30:23;17.92;;;7.53;;
33501;SDS011;22396;51.070;4.974;2023-10-09T06:32:52;19.73;;;8.23;;
33501;SDS011;22396;51.070;4.974;2023-10-09T06:35:33;18.67;;;7.30;;
33501;SDS011;22396;51.070;4.974;2023-10-09T06:38:01;19.25;;;9.23;;
33501;SDS011;22396;51.070;4.974;2023-10-09T06:40:30;25.45;;;8.63;;
33501;SDS011;22396;51.070;4.974;2023-10-09T06:43:04;18.17;;;8.40;;
33501;SDS011;22396;51.070;4.974;2023-10-09T06:45:40;15.88;;;7.68;;
33501;SDS011;22396;51.070;4.974;2023-10-09T06:48:12;20.38;;;9.02;;
33501;SDS011;22396;51.070;4.974;2023-10-09T06:50:56;19.67;;;8.43;;
33501;SDS011;22396;51.070;4.974;2023-10-09T06:53:32;19.30;;;8.68;;
33501;SDS011;22396;51.070;4.974;2023-10-09T06:56:12;25.05;;;8.73;;
33501;SDS011;22396;51.070;4.974;2023-10-09T06:58:49;21.25;;;8.85;;
33501;SDS011;22396;51.070;4.974;2023-10-09T07:01:15;25.08;;;9.68;;
33501;SDS011;22396;51.070;4.974;2023-10-09T07:03:52;24.13;;;9.52;;
33501;SDS011;22396;51.070;4.974;2023-10-09T07:06:18;22.65;;;10.32;;
33501;SDS011;22396;51.070;4.974;2023-10-09T07:08:53;21.55;;;9.40;;
33501;SDS011;22396;51.070;4.974;2023-10-09T07:11:33;21.50;;;10.20;;
33501;SDS011;22396;51.070;4.974;2023-10-09T07:17:03;29.17;;;9.50;;
33501;SDS011;22396;51.070;4.974;2023-10-09T07:19:49;29.20;;;9.63;;
33501;SDS011;22396;51.070;4.974;2023-10-09T07:22:14;21.08;;;9.43;;
33501;SDS011;22396;51.070;4.974;2023-10-09T07:24:49;27.95;;;11.98;;
33501;SDS011;22396;51.070;4.974;2023-10-09T07:27:19;29.50;;;12.48;;
33501;SDS011;22396;51.070;4.974;2023-10-09T07:30:04;26.80;;;11.43;;
33501;SDS011;22396;51.070;4.974;2023-10-09T07:32:50;23.25;;;10.60;;
33501;SDS011;22396;51.070;4.974;2023-10-09T07:35:17;23.65;;;9.73;;
33501;SDS011;22396;51.070;4.974;2023-10-09T07:38:05;30.10;;;11.07;;
33501;SDS011;22396;51.070;4.974;2023-10-09T07:40:33;24.25;;;9.60;;
33501;SDS011;22396;51.070;4.974;2023-10-09T07:43:17;27.40;;;10.38;;
33501;SDS011;22396;51.070;4.974;2023-10-09T07:45:42;26.27;;;10.52;;
33501;SDS011;22396;51.070;4.974;2023-10-09T07:48:16;26.25;;;11.65;;
33501;SDS011;22396;51.070;4.974;2023-10-09T07:50:41;21.63;;;9.63;;
33501;SDS011;22396;51.070;4.974;2023-10-09T07:53:13;31.27;;;10.45;;
33501;SDS011;22396;51.070;4.974;2023-10-09T07:56:04;23.00;;;10.23;;
33501;SDS011;22396;51.070;4.974;2023-10-09T07:58:33;26.55;;;9.95;;
33501;SDS011;22396;51.070;4.974;2023-10-09T08:01:11;17.50;;;8.50;;
33501;SDS011;22396;51.070;4.974;2023-10-09T08:03:55;23.58;;;9.45;;
33501;SDS011;22396;51.070;4.974;2023-10-09T08:06:30;21.63;;;9.40;;
33501;SDS011;22396;51.070;4.974;2023-10-09T08:09:05;28.25;;;10.10;;
33501;SDS011;22396;51.070;4.974;2023-10-09T08:12:03;20.48;;;9.27;;
33501;SDS011;22396;51.070;4.974;2023-10-09T08:14:47;22.23;;;9.55;;
33501;SDS011;22396;51.070;4.974;2023-10-09T08:17:19;19.92;;;9.63;;
33501;SDS011;22396;51.070;4.974;2023-10-09T08:19:48;24.40;;;9.82;;
33501;SDS011;22396;51.070;4.974;2023-10-09T08:22:23;24.35;;;9.68;;
33501;SDS011;22396;51.070;4.974;2023-10-09T08:24:49;22.90;;;9.07;;
33501;SDS011;22396;51.070;4.974;2023-10-09T08:30:01;21.10;;;9.60;;
33501;SDS011;22396;51.070;4.974;2023-10-09T08:32:45;29.75;;;9.88;;
33501;SDS011;22396;51.070;4.974;2023-10-09T08:35:29;22.13;;;9.82;;
33501;SDS011;22396;51.070;4.974;2023-10-09T08:38:01;19.50;;;8.85;;
33501;SDS011;22396;51.070;4.974;2023-10-09T08:40:42;20.75;;;8.32;;
33501;SDS011;22396;51.070;4.974;2023-10-09T08:43:18;17.35;;;10.00;;
33501;SDS011;22396;51.070;4.974;2023-10-09T08:45:48;22.58;;;9.40;;
33501;SDS011;22396;51.070;4.974;2023-10-09T08:48:13;19.63;;;9.30;;
33501;SDS011;22396;51.070;4.974;2023-10-09T08:50:46;19.20;;;9.77;;
33501;SDS011;22396;51.070;4.974;2023-10-09T08:53:14;20.30;;;9.82;;
33501;SDS011;22396;51.070;4.974;2023-10-09T08:55:44;22.75;;;9.68;;
33501;SDS011;22396;51.070;4.974;2023-10-09T08:58:11;23.40;;;10.30;;
33501;SDS011;22396;51.070;4.974;2023-10-09T09:00:50;22.48;;;10.02;;
33501;SDS011;22396;51.070;4.974;2023-10-09T09:03:16;26.80;;;9.60;;
33501;SDS011;22396;51.070;4.974;2023-10-09T09:05:46;20.80;;;8.27;;
33501;SDS011;22396;51.070;4.974;2023-10-09T09:08:25;20.17;;;8.95;;
33501;SDS011;22396;51.070;4.974;2023-10-09T09:10:56;19.77;;;9.35;;
33501;SDS011;22396;51.070;4.974;2023-10-09T09:15:51;22.17;;;9.38;;
33501;SDS011;22396;51.070;4.974;2023-10-09T09:18:21;20.05;;;9.35;;
33501;SDS011;22396;51.070;4.974;2023-10-09T09:20:47;18.77;;;8.95;;
33501;SDS011;22396;51.070;4.974;2023-10-09T09:23:18;23.65;;;8.93;;
33501;SDS011;22396;51.070;4.974;2023-10-09T09:25:48;22.67;;;8.65;;
33501;SDS011;22396;51.070;4.974;2023-10-09T09:28:24;25.52;;;9.77;;
33501;SDS011;22396;51.070;4.974;2023-10-09T09:30:51;20.17;;;9.38;;
33501;SDS011;22396;51.070;4.974;2023-10-09T09:33:24;23.10;;;9.98;;
33501;SDS011;22396;51.070;4.974;2023-10-09T09:36:15;26.48;;;9.55;;
33501;SDS011;22396;51.070;4.974;2023-10-09T09:38:41;25.92;;;9.60;;
33501;SDS011;22396;51.070;4.974;2023-10-09T09:41:17;17.80;;;7.53;;
33501;SDS011;22396;51.070;4.974;2023-10-09T09:43:58;23.00;;;8.45;;
33501;SDS011;22396;51.070;4.974;2023-10-09T09:46:28;21.83;;;9.07;;
33501;SDS011;22396;51.070;4.974;2023-10-09T09:49:05;19.67;;;8.07;;
33501;SDS011;22396;51.070;4.974;2023-10-09T09:51:40;19.15;;;8.35;;
33501;SDS011;22396;51.070;4.974;2023-10-09T09:54:08;17.98;;;7.35;;
33501;SDS011;22396;51.070;4.974;2023-10-09T09:56:34;23.05;;;7.85;;
33501;SDS011;22396;51.070;4.974;2023-10-09T09:59:02;18.75;;;7.82;;
33501;SDS011;22396;51.070;4.974;2023-10-09T10:01:30;23.30;;;7.53;;
33501;SDS011;22396;51.070;4.974;2023-10-09T10:04:09;18.50;;;7.40;;
33501;SDS011;22396;51.070;4.974;2023-10-09T10:06:38;16.27;;;7.10;;
33501;SDS011;22396;51.070;4.974;2023-10-09T10:09:09;16.88;;;7.78;;
33501;SDS011;22396;51.070;4.974;2023-10-09T10:11:45;21.83;;;7.38;;
33501;SDS011;22396;51.070;4.974;2023-10-09T10:14:11;20.67;;;7.78;;
33501;SDS011;22396;51.070;4.974;2023-10-09T10:17:04;21.83;;;8.52;;
33501;SDS011;22396;51.070;4.974;2023-10-09T10:22:25;19.05;;;7.75;;
33501;SDS011;22396;51.070;4.974;2023-10-09T10:25:02;18.50;;;8.05;;
33501;SDS011;22396;51.070;4.974;2023-10-09T10:27:34;16.80;;;7.72;;
33501;SDS011;22396;51.070;4.974;2023-10-09T10:35:17;19.70;;;7.85;;
33501;SDS011;22396;51.070;4.974;2023-10-09T10:37:45;16.95;;;7.85;;
33501;SDS011;22396;51.070;4.974;2023-10-09T10:40:26;17.52;;;7.28;;
33501;SDS011;22396;51.070;4.974;2023-10-09T10:43:16;19.98;;;7.82;;
33501;SDS011;22396;51.070;4.974;2023-10-09T10:46:00;19.98;;;7.15;;
33501;SDS011;22396;51.070;4.974;2023-10-09T10:48:26;18.42;;;7.45;;
33501;SDS011;22396;51.070;4.974;2023-10-09T10:51:02;15.30;;;6.70;;
33501;SDS011;22396;51.070;4.974;2023-10-09T10:53:29;18.67;;;7.22;;
33501;SDS011;22396;51.070;4.974;2023-10-09T10:58:52;19.23;;;7.07;;
33501;SDS011;22396;51.070;4.974;2023-10-09T11:01:32;17.40;;;6.28;;
33501;SDS011;22396;51.070;4.974;2023-10-09T11:04:27;15.75;;;6.50;;
33501;SDS011;22396;51.070;4.974;2023-10-09T11:07:04;17.77;;;6.75;;
33501;SDS011;22396;51.070;4.974;2023-10-09T11:12:25;14.07;;;6.30;;
33501;SDS011;22396;51.070;4.974;2023-10-09T11:15:03;15.52;;;6.25;;
33501;SDS011;22396;51.070;4.974;2023-10-09T11:17:34;16.00;;;6.57;;
33501;SDS011;22396;51.070;4.974;2023-10-09T11:20:03;16.55;;;7.18;;
33501;SDS011;22396;51.070;4.974;2023-10-09T11:22:48;15.38;;;6.50;;
33501;SDS011;22396;51.070;4.974;2023-10-09T11:25:32;16.58;;;7.65;;
33501;SDS011;22396;51.070;4.974;2023-10-09T11:27:58;20.65;;;6.90;;
33501;SDS011;22396;51.070;4.974;2023-10-09T11:30:39;16.70;;;7.57;;
33501;SDS011;22396;51.070;4.974;2023-10-09T11:33:05;19.95;;;6.95;;
33501;SDS011;22396;51.070;4.974;2023-10-09T11:35:32;16.35;;;7.25;;
33501;SDS011;22396;51.070;4.974;2023-10-09T11:38:00;27.60;;;6.78;;
33501;SDS011;22396;51.070;4.974;2023-10-09T11:40:32;14.38;;;6.55;;
33501;SDS011;22396;51.070;4.974;2023-10-09T11:43:18;14.32;;;5.45;;
33501;SDS011;22396;51.070;4.974;2023-10-09T11:45:48;15.13;;;6.38;;
33501;SDS011;22396;51.070;4.974;2023-10-09T11:48:20;19.30;;;7.45;;
33501;SDS011;22396;51.070;4.974;2023-10-09T11:50:53;18.85;;;8.20;;
33501;SDS011;22396;51.070;4.974;2023-10-09T11:53:18;18.95;;;7.30;;
33501;SDS011;22396;51.070;4.974;2023-10-09T11:55:50;18.25;;;7.57;;
33501;SDS011;22396;51.070;4.974;2023-10-09T11:58:16;17.75;;;6.82;;
33501;SDS011;22396;51.070;4.974;2023-10-09T12:00:48;20.70;;;8.10;;
33501;SDS011;22396;51.070;4.974;2023-10-09T12:03:13;18.90;;;8.27;;
33501;SDS011;22396;51.070;4.974;2023-10-09T12:05:39;18.67;;;7.45;;
33501;SDS011;22396;51.070;4.974;2023-10-09T12:08:09;15.85;;;7.07;;
33501;SDS011;22396;51.070;4.974;2023-10-09T12:10:34;24.13;;;7.18;;
33501;SDS011;22396;51.070;4.974;2023-10-09T12:13:03;18.63;;;7.72;;
33501;SDS011;22396;51.070;4.974;2023-10-09T12:15:29;18.58;;;8.05;;
33501;SDS011;22396;51.070;4.974;2023-10-09T12:18:11;18.75;;;7.68;;
33501;SDS011;22396;51.070;4.974;2023-10-09T12:20:44;17.33;;;7.85;;
33501;SDS011;22396;51.070;4.974;2023-10-09T12:23:28;20.83;;;8.90;;
33501;SDS011;22396;51.070;4.974;2023-10-09T12:25:54;22.17;;;8.52;;
33501;SDS011;22396;51.070;4.974;2023-10-09T12:28:22;26.63;;;9.73;;
33501;SDS011;22396;51.070;4.974;2023-10-09T12:30:48;20.48;;;7.90;;
33501;SDS011;22396;51.070;4.974;2023-10-09T12:33:17;22.60;;;8.43;;
33501;SDS011;22396;51.070;4.974;2023-10-09T12:35:43;20.38;;;8.55;;
33501;SDS011;22396;51.070;4.974;2023-10-09T12:38:12;22.92;;;8.57;;
33501;SDS011;22396;51.070;4.974;2023-10-09T12:40:39;23.05;;;9.05;;
33501;SDS011;22396;51.070;4.974;2023-10-09T12:43:15;16.48;;;7.85;;
33501;SDS011;22396;51.070;4.974;2023-10-09T12:45:42;25.52;;;7.65;;
33501;SDS011;22396;51.070;4.974;2023-10-09T12:48:10;34.70;;;8.82;;
33501;SDS011;22396;51.070;4.974;2023-10-09T12:50:36;22.77;;;9.68;;
33501;SDS011;22396;51.070;4.974;2023-10-09T12:53:07;21.43;;;9.20;;
33501;SDS011;22396;51.070;4.974;2023-10-09T12:55:39;26.55;;;10.02;;
33501;SDS011;22396;51.070;4.974;2023-10-09T12:58:08;22.10;;;9.98;;
33501;SDS011;22396;51.070;4.974;2023-10-09T13:00:34;23.83;;;10.40;;
33501;SDS011;22396;51.070;4.974;2023-10-09T13:03:02;22.30;;;9.15;;
33501;SDS011;22396;51.070;4.974;2023-10-09T13:05:38;22.20;;;10.65;;
33501;SDS011;22396;51.070;4.974;2023-10-09T13:08:11;22.67;;;9.15;;
33501;SDS011;22396;51.070;4.974;2023-10-09T13:10:36;24.40;;;9.43;;
33501;SDS011;22396;51.070;4.974;2023-10-09T13:13:03;22.17;;;9.50;;
33501;SDS011;22396;51.070;4.974;2023-10-09T13:15:31;17.42;;;7.93;;
33501;SDS011;22396;51.070;4.974;2023-10-09T13:18:07;18.58;;;8.82;;
33501;SDS011;22396;51.070;4.974;2023-10-09T13:20:33;27.35;;;11.35;;
33501;SDS011;22396;51.070;4.974;2023-10-09T13:22:58;21.27;;;9.82;;
33501;SDS011;22396;51.070;4.974;2023-10-09T13:25:23;23.30;;;9.68;;
33501;SDS011;22396;51.070;4.974;2023-10-09T13:27:51;24.75;;;9.52;;
33501;SDS011;22396;51.070;4.974;2023-10-09T13:30:19;24.90;;;10.25;;
33501;SDS011;22396;51.070;4.974;2023-10-09T13:32:51;22.15;;;10.45;;
33501;SDS011;22396;51.070;4.974;2023-10-09T13:35:17;21.85;;;10.35;;
33501;SDS011;22396;51.070;4.974;2023-10-09T13:37:52;22.38;;;9.77;;
33501;SDS011;22396;51.070;4.974;2023-10-09T13:40:21;23.73;;;10.15;;
33501;SDS011;22396;51.070;4.974;2023-10-09T13:42:53;22.30;;;8.95;;
33501;SDS011;22396;51.070;4.974;2023-10-09T13:45:23;15.82;;;8.10;;
33501;SDS011;22396;51.070;4.974;2023-10-09T13:47:52;26.77;;;10.60;;
33501;SDS011;22396;51.070;4.974;2023-10-09T13:50:20;23.15;;;9.82;;
33501;SDS011;22396;51.070;4.974;2023-10-09T13:52:47;27.95;;;10.25;;
33501;SDS011;22396;51.070;4.974;2023-10-09T13:55:12;28.67;;;10.65;;
33501;SDS011;22396;51.070;4.974;2023-10-09T13:57:41;23.65;;;10.80;;
33501;SDS011;22396;51.070;4.974;2023-10-09T14:00:08;24.65;;;10.45;;
33501;SDS011;22396;51.070;4.974;2023-10-09T14:02:35;28.00;;;9.75;;
33501;SDS011;22396;51.070;4.974;2023-10-09T14:05:02;24.65;;;9.95;;
33501;SDS011;22396;51.070;4.974;2023-10-09T14:07:28;25.65;;;12.18;;
33501;SDS011;22396;51.070;4.974;2023-10-09T14:09:54;26.10;;;11.05;;
33501;SDS011;22396;51.070;4.974;2023-10-09T14:12:32;29.23;;;10.23;;
33501;SDS011;22396;51.070;4.974;2023-10-09T14:14:59;24.90;;;11.00;;
33501;SDS011;22396;51.070;4.974;2023-10-09T14:17:25;29.67;;;13.93;;
33501;SDS011;22396;51.070;4.974;2023-10-09T14:19:53;30.05;;;11.07;;
33501;SDS011;22396;51.070;4.974;2023-10-09T14:22:19;24.52;;;11.63;;
33501;SDS011;22396;51.070;4.974;2023-10-09T14:24:45;29.33;;;12.30;;
33501;SDS011;22396;51.070;4.974;2023-10-09T14:27:11;27.65;;;12.60;;
33501;SDS011;22396;51.070;4.974;2023-10-09T14:29:43;32.55;;;13.05;;
33501;SDS011;22396;51.070;4.974;2023-10-09T14:32:09;35.00;;;12.52;;
33501;SDS011;22396;51.070;4.974;2023-10-09T14:34:38;28.27;;;11.95;;
33501;SDS011;22396;51.070;4.974;2023-10-09T14:37:07;30.00;;;12.65;;
33501;SDS011;22396;51.070;4.974;2023-10-09T14:39:35;31.75;;;11.77;;
33501;SDS011;22396;51.070;4.974;2023-10-09T14:42:02;23.52;;;11.02;;
33501;SDS011;22396;51.070;4.974;2023-10-09T14:44:35;26.40;;;12.55;;
33501;SDS011;22396;51.070;4.974;2023-10-09T14:47:02;26.45;;;11.32;;
33501;SDS011;22396;51.070;4.974;2023-10-09T14:49:30;27.90;;;11.18;;
33501;SDS011;22396;51.070;4.974;2023-10-09T14:52:00;29.00;;;10.52;;
33501;SDS011;22396;51.070;4.974;2023-10-09T14:54:25;31.85;;;10.73;;
33501;SDS011;22396;51.070;4.974;2023-10-09T14:56:51;23.60;;;10.75;;
33501;SDS011;22396;51.070;4.974;2023-10-09T14:59:19;28.50;;;13.55;;
33501;SDS011;22396;51.070;4.974;2023-10-09T15:01:47;26.33;;;12.15;;
33501;SDS011;22396;51.070;4.974;2023-10-09T15:04:13;26.60;;;12.05;;
33501;SDS011;22396;51.070;4.974;2023-10-09T15:06:39;32.30;;;11.60;;
33501;SDS011;22396;51.070;4.974;2023-10-09T15:09:05;30.95;;;13.05;;
33501;SDS011;22396;51.070;4.974;2023-10-09T15:11:34;26.52;;;12.38;;
33501;SDS011;22396;51.070;4.974;2023-10-09T15:14:02;32.35;;;12.30;;
33501;SDS011;22396;51.070;4.974;2023-10-09T15:16:33;41.22;;;13.43;;
33501;SDS011;22396;51.070;4.974;2023-10-09T15:18:58;28.95;;;12.25;;
33501;SDS011;22396;51.070;4.974;2023-10-09T15:21:27;24.15;;;11.38;;
33501;SDS011;22396;51.070;4.974;2023-10-09T15:23:55;34.90;;;13.00;;
33501;SDS011;22396;51.070;4.974;2023-10-09T15:26:21;34.78;;;11.77;;
33501;SDS011;22396;51.070;4.974;2023-10-09T15:28:47;26.05;;;12.15;;
33501;SDS011;22396;51.070;4.974;2023-10-09T15:31:14;28.67;;;12.40;;
33501;SDS011;22396;51.070;4.974;2023-10-09T15:33:41;31.13;;;13.13;;
33501;SDS011;22396;51.070;4.974;2023-10-09T15:36:13;30.88;;;12.88;;